Weather - Helsinki Query any day in the database

Current weather  

Weather data for a selected day (2006-01-01 -2020-10-30)
Enter date:     <-     scroll days         ->
day curves
Low temperature°C -28.008:50
High temperature°C -11.023:50
Low wind chill°C -35.608:50
Average temperature°C -21.1 
High wind speed (10 min) m/s 3.619:20
Low pressurehPa 1024.000:20
High pressurehPa 1030.017:50
Low R.H% 7509:20
High R.H% 9223:20
Day weather data as a table
Date Time Temp
°C
Chill
°C
Pressure
hPA
Wind
m/s
Hum
%
Precip
mm
2016-01-22 23:50:00 -11.0  -13.9  1029.0 1.3 85 -
2016-01-22 23:20:00 -12.0  -18.1  1029.0 3.1 92 -
2016-01-22 22:50:00 -12.0  -13.8  1029.0 0.9 85 -
2016-01-22 22:20:00 -13.0  -13.0  1029.0 0.4 92 -
2016-01-22 21:50:00 -13.0  -14.9  1029.0 0.9 92 -
2016-01-22 21:20:00 -13.0  -13.0  1029.0 0.4 84 -
2016-01-22 20:50:00 -14.0  -16.0  1029.0 0.9 92 -
2016-01-22 20:20:00 -15.0  -15.0  1029.0 0.4 92 -
2016-01-22 19:50:00 -15.0  -17.1  1029.0 0.9 84 -
2016-01-22 19:20:00 -15.0  -22.3  1029.0 3.6 84 -
2016-01-22 18:50:00 -16.0  -21.5  1029.0 2.2 84 -
2016-01-22 18:20:00 -18.0  -21.8  1029.0 1.3 84 -
2016-01-22 17:50:00 -18.0  -20.4  1030.0 0.9 84 -
2016-01-22 17:20:00 -19.0  -25.0  1030.0 2.2 84 -
2016-01-22 16:50:00 -20.0  -24.0  1030.0 1.3 84 -
2016-01-22 16:20:00 -19.0  -19.0  1030.0 0.4 84 -
2016-01-22 15:50:00 -20.0  -20.0  1029.0 0.4 84 -
2016-01-22 15:20:00 -20.0  -22.6  1029.0 0.9 84 -
2016-01-22 14:50:00 -19.0  -22.9  1029.0 1.3 84 -
2016-01-22 14:20:00 -21.0  -21.0  1029.0 0.4 83 -
2016-01-22 13:50:00 -20.0  -22.6  1029.0 0.9 76 -
2016-01-22 13:20:00 -21.0  -21.0  1029.0 0.0 83 -
2016-01-22 12:50:00 -22.0  -24.8  1029.0 0.9 76 -
2016-01-22 12:20:00 -24.0  -24.0  1029.0 0.4 83 -
2016-01-22 11:50:00 -23.0  -25.9  1029.0 0.9 76 -
2016-01-22 11:20:00 -25.0  -29.7  1029.0 1.3 83 -
2016-01-22 10:50:00 -25.0  -25.0  1029.0 0.4 76 -
2016-01-22 10:20:00 -27.0  -31.9  1029.0 1.3 75 -
2016-01-22 09:50:00 -27.0  -31.9  1029.0 1.3 83 -
2016-01-22 09:20:00 -27.0  -30.3  1028.0 0.9 75 -
2016-01-22 08:50:00 -28.0  -35.6  1028.0 2.2 82 -
2016-01-22 08:20:00 -28.0  -33.0  1028.0 1.3 82 -
2016-01-22 07:50:00 -28.0  -35.6  1028.0 2.2 82 -
2016-01-22 07:20:00 -27.0  -27.1  1027.0 0.4 83 -
2016-01-22 06:50:00 -27.0  -30.3  1027.0 0.9 83 -
2016-01-22 06:20:00 -26.0  -29.2  1027.0 0.9 83 -
2016-01-22 05:50:00 -25.0  -28.1  1027.0 0.9 83 -
2016-01-22 05:20:00 -26.0  -33.2  1026.0 2.2 83 -
2016-01-22 04:50:00 -25.0  -29.7  1026.0 1.3 83 -
2016-01-22 04:20:00 -24.0  -28.5  1026.0 1.3 76 -
2016-01-22 03:50:00 -24.0  -30.9  1026.0 2.2 76 -
2016-01-22 03:20:00 -24.0  -28.5  1026.0 1.3 83 -
2016-01-22 02:50:00 -23.0  -30.7  1025.0 2.7 83 -
2016-01-22 02:20:00 -24.0  -28.5  1025.0 1.3 76 -
2016-01-22 01:50:00 -23.0  -30.7  1025.0 2.7 83 -
2016-01-22 01:20:00 -22.0  -29.5  1025.0 2.7 83 -
2016-01-22 00:50:00 -22.0  -29.5  1025.0 2.7 83 -
2016-01-22 00:20:00 -21.0  -27.4  1024.0 2.2 76 -
Unit conversions: